Language selection

Features

My Weather Profile Weather Topics  | 

Pacific - North Coast: Past 24 Hour Conditions

 

Bella Coola Airport

05:00 PM PST 18 January 2020
Disclaimer

This table is a summary of hourly weather conditions for the past 24 hours.
Please note that these observations might not always be representative of weather conditions over their associated marine area.

Date / Time
(PST)
Wind(knots) Conditions Visibility(km) Pressure(kPa) Air tempC) Relative humidity(%) Dew pointC) Wind Chill
18 January 2020
17:00 ENE 7 Light Snow 8 101.5 -6 78 -10 -12
16:00 ENE 10 Light Snow 10 101.5 -6 69 -11 -13
15:00 ENE 9 Light Snow 13 101.5 -6 61 -12 -12
14:00 ENE 11 gust 20 Light Snow 16 101.5 -6 60 -13 -13
13:00 ENE 9 gust 17 Light Snow 13 101.6 -7 62 -13 -13
12:00 E 9 gust 19 Light Snow 11 101.5 -7 62 -14 -14
11:00 ENE 11 gust 17 Light Snow 11 101.5 -8 69 -13 -16
10:00 ENE 11 gust 18 Light Snow 10 101.5 -9 69 -14 -17
9:00 ENE 10 gust 16 Light Snow 16 101.4 -9 63 -15 -16
8:00 ENE 8 gust 16 Cloudy 19 101.4 -9 55 -16 -15
7:00 E 10 gust 19 Cloudy 24 101.4 -9 48 -18 -16
6:00 ENE 11 gust 20 N/A N/A 101.4 -9 50 -18 -17
5:00 ENE 9 gust 18 N/A N/A 101.5 -9 52 -18 -16
4:00 E 9 gust 22 N/A N/A 101.5 -10 53 -18 -16
3:00 E 10 gust 21 N/A N/A 101.6 -9 51 -18 -17
2:00 ENE 6 gust 22 N/A N/A 101.7 -10 65 -16 -16
1:00 E 11 gust 20 N/A N/A 101.8 -11 60 -17 -19
0:00 E 6 gust 18 N/A N/A 102.0 -10 48 -19 -16
17 January 2020
23:00 ENE 10 gust 20 N/A N/A 102.1 -10 46 -20 -18
22:00 E 8 gust 18 N/A N/A 102.2 -10 45 -20 -17
21:00 E 8 gust 19 N/A N/A 102.3 -10 45 -20 -17
20:00 ESE 8 gust 16 N/A N/A 102.3 -10 45 -20 -17
19:00 ESE 7 gust 17 N/A N/A 102.4 -11 44 -21 -17
18:00 ENE 6 gust 22 N/A N/A 102.5 -11 44 -21 -16
17:00 E 8 gust 19 Cloudy 24 102.6 -11 44 -21 -18

Zoom-in to make a selection

Map of Pacific - North Coast marine weather areas Middle Nomad - 46004 South Nomad - 46036 Dixon Entrance Central - 46145 South Moresby - 46147 Nanakwa Shoal - 46181 North Hecate Strait - 46183 North Nomad - 46184 South Hecate Strait - 46185 West Sea Otter - 46204 West Dixon Entrance - 46205 East Dellwood - 46207 West Moresby - 46208 Sartine Island Cape St.James Kindakun Rocks Langara Island Masset Municipal Airport Rose Spit Sandspit Airport Bella Bella Airport Bella Coola Airport Bonilla Island Cathedral Point Cumshewa Island Grey Islet Holland Rock Lucy Islands Lightstation Prince Rupert Airport
Legend:
buoy Buoy
land station Land Station

Pacific - North Coast Area

Another Region

What we are doing

Date modified: